Time;durP1;ratioP1;P1;durP2;ratioP2;P2;SDS_P1;SDS_P2;PMS_P1;PMS_P2;Temp;Humidity;BMP_temperature;BMP_pressure;BME280_temperature;BME280_humidity;BME280_pressure;Samples;Min_cycle;Max_cycle;Signal;HPM_P1;HPM_P2
2022/06/16 00:00:50;;;;;;;2.80;2.00;;;15.90;78.70;;;;;;5183020;28;20843;-50
2022/06/16 00:03:22;;;;;;;2.70;2.50;;;15.80;81.90;;;;;;5182311;28;20288;-51
2022/06/16 00:05:53;;;;;;;2.57;2.47;;;15.70;84.70;;;;;;5183480;28;20709;-51
2022/06/16 00:08:23;;;;;;;5.33;2.30;;;15.60;88.10;;;;;;5170516;28;20588;-49
2022/06/16 00:13:44;;;;;;;5.70;2.50;;;15.50;91.50;;;;;;5181851;28;20199;-49
2022/06/16 00:16:15;;;;;;;2.50;2.33;;;15.50;92.50;;;;;;5185636;28;20798;-49
2022/06/16 00:18:46;;;;;;;2.77;2.30;;;15.50;93.50;;;;;;5182146;28;20436;-50
2022/06/16 00:21:17;;;;;;;2.47;2.37;;;15.40;94.80;;;;;;5170086;28;20991;-49
2022/06/16 00:23:48;;;;;;;3.07;2.20;;;15.40;95.50;;;;;;5181147;28;20207;-49
2022/06/16 00:26:22;;;;;;;4.10;2.80;;;15.30;97.40;;;;;;5186944;28;20427;-49
2022/06/16 00:28:53;;;;;;;3.07;2.80;;;15.20;98.50;;;;;;5185725;28;20188;-50
2022/06/16 00:31:23;;;;;;;4.83;2.40;;;15.20;99.30;;;;;;5182494;28;21032;-48
2022/06/16 00:33:54;;;;;;;2.40;2.20;;;15.20;99.90;;;;;;5179709;28;20435;-48
2022/06/16 00:36:25;;;;;;;3.13;2.27;;;15.10;99.90;;;;;;5172179;28;20192;-50
2022/06/16 00:38:55;;;;;;;1.83;1.83;;;15.10;99.90;;;;;;5182403;28;20196;-48
2022/06/16 00:41:26;;;;;;;5.03;2.70;;;15.00;99.90;;;;;;5181401;28;20252;-48
2022/06/16 00:44:01;;;;;;;2.20;2.10;;;15.00;99.90;;;;;;5176571;28;20215;-48
2022/06/16 00:46:32;;;;;;;2.50;2.40;;;15.00;99.90;;;;;;5173656;28;20180;-49
2022/06/16 00:49:06;;;;;;;3.03;2.80;;;14.90;99.90;;;;;;5185241;28;20447;-49
2022/06/16 00:51:50;;;;;;;2.60;2.50;;;14.90;99.90;;;;;;5183782;28;20250;-48
2022/06/16 00:54:31;;;;;;;2.33;2.00;;;14.80;99.90;;;;;;5183807;28;20527;-49
2022/06/16 00:57:05;;;;;;;2.33;2.23;;;14.80;99.90;;;;;;5174022;28;20969;-48
2022/06/16 00:59:37;;;;;;;3.43;2.27;;;14.80;99.90;;;;;;5178025;28;20507;-50
2022/06/16 01:02:08;;;;;;;3.70;3.40;;;14.70;99.90;;;;;;5186718;28;20577;-49
2022/06/16 01:04:51;;;;;;;4.17;1.77;;;14.70;99.90;;;;;;5188855;28;20435;-48
2022/06/16 01:07:37;;;;;;;2.83;2.57;;;14.70;99.90;;;;;;5182349;28;20467;-49
2022/06/16 01:10:09;;;;;;;7.30;2.63;;;14.60;99.90;;;;;;5184887;28;20439;-49
2022/06/16 01:15:51;;;;;;;3.40;3.10;;;14.50;99.90;;;;;;5177301;28;20487;-49
2022/06/16 01:18:50;;;;;;;3.80;2.50;;;14.50;99.90;;;;;;5184900;28;20514;-48
2022/06/16 01:21:32;;;;;;;2.50;2.30;;;14.40;99.90;;;;;;5181605;28;20712;-48
2022/06/16 01:24:18;;;;;;;5.50;3.07;;;14.40;99.90;;;;;;5182114;28;20457;-49
2022/06/16 01:27:16;;;;;;;2.97;2.77;;;14.30;99.90;;;;;;5166439;28;20431;-49
2022/06/16 01:30:19;;;;;;;2.50;2.40;;;14.30;99.90;;;;;;5179885;28;20419;-49
2022/06/16 01:33:12;;;;;;;3.80;2.50;;;14.20;99.90;;;;;;5179564;28;20423;-50
2022/06/16 01:36:01;;;;;;;5.73;3.13;;;14.10;99.90;;;;;;5185408;28;20775;-51
2022/06/16 01:38:43;;;;;;;3.53;3.33;;;14.10;99.90;;;;;;5185180;28;20841;-49
2022/06/16 01:41:40;;;;;;;3.60;2.93;;;14.10;99.90;;;;;;5179716;28;20475;-48
2022/06/16 01:44:18;;;;;;;3.70;3.40;;;14.00;99.90;;;;;;5177259;28;20441;-48
2022/06/16 01:46:55;;;;;;;5.67;2.53;;;14.00;99.90;;;;;;5177727;28;20432;-49
2022/06/16 01:49:32;;;;;;;3.53;2.90;;;14.00;99.90;;;;;;5166967;28;20927;-49
2022/06/16 01:52:12;;;;;;;5.80;2.53;;;13.90;99.90;;;;;;5183619;28;21108;-49
2022/06/16 01:55:07;;;;;;;3.40;3.20;;;13.90;99.90;;;;;;5178161;28;20443;-48
2022/06/16 01:57:44;;;;;;;3.37;2.83;;;13.90;99.90;;;;;;5180500;28;20530;-49
2022/06/16 02:00:24;;;;;;;4.00;3.70;;;14.00;99.90;;;;;;5178237;28;20436;-48
2022/06/16 02:03:06;;;;;;;3.20;3.00;;;14.00;99.90;;;;;;5178948;28;20491;-48
2022/06/16 02:05:43;;;;;;;3.60;3.30;;;14.00;99.90;;;;;;5175354;28;20974;-49
2022/06/16 02:08:20;;;;;;;7.83;4.00;;;14.00;99.90;;;;;;5183257;28;20977;-49
2022/06/16 02:10:59;;;;;;;3.30;3.10;;;14.00;99.90;;;;;;5181327;28;20454;-50
2022/06/16 02:13:34;;;;;;;4.63;3.73;;;14.00;99.90;;;;;;5174053;28;20797;-48
2022/06/16 02:16:12;;;;;;;3.33;3.13;;;14.00;99.90;;;;;;5177914;28;20431;-48
2022/06/16 02:18:44;;;;;;;7.80;4.23;;;14.00;99.90;;;;;;5180992;28;20499;-48
2022/06/16 02:21:23;;;;;;;5.03;3.17;;;13.90;99.90;;;;;;5178157;28;20464;-49
2022/06/16 02:23:55;;;;;;;6.87;3.83;;;13.90;99.90;;;;;;5174044;28;20860;-50
2022/06/16 02:26:27;;;;;;;3.40;3.07;;;13.90;99.90;;;;;;5182895;28;20518;-49
2022/06/16 02:29:00;;;;;;;5.07;2.80;;;13.90;99.90;;;;;;5181467;28;20435;-49
2022/06/16 02:31:59;;;;;;;3.43;3.23;;;13.90;99.90;;;;;;5178921;28;20450;-49
2022/06/16 02:34:56;;;;;;;3.50;3.30;;;13.80;99.90;;;;;;5188605;28;20995;-49
2022/06/16 02:37:50;;;;;;;6.37;3.30;;;13.80;99.90;;;;;;5173214;28;20440;-49
2022/06/16 02:40:59;;;;;;;5.73;3.60;;;13.80;99.90;;;;;;5174955;28;20486;-48
2022/06/16 02:43:48;;;;;;;4.23;3.93;;;13.80;99.90;;;;;;5160930;28;20446;-48
2022/06/16 02:46:38;;;;;;;4.67;4.33;;;13.80;99.90;;;;;;5178517;28;20446;-49
2022/06/16 02:49:27;;;;;;;4.00;3.70;;;13.80;99.90;;;;;;5178637;28;20427;-49
2022/06/16 02:52:28;;;;;;;4.23;3.83;;;13.80;99.90;;;;;;5180069;28;20510;-48
2022/06/16 02:55:15;;;;;;;6.13;3.10;;;13.80;99.90;;;;;;5169264;28;20435;-49
2022/06/16 02:57:53;;;;;;;3.43;3.00;;;13.80;99.90;;;;;;5183700;28;20435;-50
2022/06/16 03:00:37;;;;;;;3.47;3.17;;;13.80;99.90;;;;;;5183691;28;20454;-48
2022/06/16 03:03:29;;;;;;;11.20;3.53;;;13.80;99.90;;;;;;5176167;28;20436;-49
2022/06/16 03:06:00;;;;;;;3.47;3.27;;;13.80;99.90;;;;;;5192263;28;20415;-49
2022/06/16 03:08:39;;;;;;;3.70;3.30;;;13.80;99.90;;;;;;5182079;28;20842;-50
2022/06/16 03:11:11;;;;;;;5.13;3.97;;;13.80;99.90;;;;;;5179649;28;21072;-49
2022/06/16 03:13:42;;;;;;;8.60;4.20;;;13.70;99.90;;;;;;5185427;28;20444;-49
2022/06/16 03:16:12;;;;;;;4.83;4.17;;;13.70;99.90;;;;;;5183315;28;20454;-48
2022/06/16 03:18:43;;;;;;;3.97;3.50;;;13.60;99.90;;;;;;5181774;28;20184;-49
2022/06/16 03:21:14;;;;;;;5.83;3.80;;;13.70;99.90;;;;;;5176582;28;20216;-49
2022/06/16 03:23:45;;;;;;;7.93;4.30;;;13.60;99.90;;;;;;5184196;28;20636;-49
2022/06/16 03:26:15;;;;;;;7.17;3.70;;;13.70;99.90;;;;;;5181166;28;20188;-48
2022/06/16 03:28:46;;;;;;;3.60;3.40;;;13.80;99.90;;;;;;5179532;28;20374;-50
2022/06/16 03:31:17;;;;;;;6.30;4.40;;;13.80;99.90;;;;;;5184567;28;20208;-49
2022/06/16 03:33:47;;;;;;;3.63;3.33;;;13.90;99.90;;;;;;5182632;28;20231;-48
2022/06/16 03:36:19;;;;;;;5.87;4.00;;;13.90;99.90;;;;;;5181999;28;20188;-50
2022/06/16 03:38:50;;;;;;;7.40;4.80;;;13.90;99.90;;;;;;5175461;28;20649;-48
2022/06/16 03:41:20;;;;;;;4.33;3.17;;;14.00;99.90;;;;;;5187450;28;20470;-50
2022/06/16 03:43:51;;;;;;;5.90;3.87;;;14.00;99.90;;;;;;5185127;28;20200;-49
2022/06/16 03:46:22;;;;;;;4.70;4.30;;;14.00;99.90;;;;;;5186161;28;20320;-49
2022/06/16 03:48:53;;;;;;;6.27;3.60;;;14.10;99.90;;;;;;5182780;28;20181;-49
2022/06/16 03:51:24;;;;;;;7.73;3.90;;;14.10;99.90;;;;;;5180020;28;20212;-49
2022/06/16 03:53:54;;;;;;;6.87;3.60;;;14.00;99.90;;;;;;5181023;28;20934;-50
2022/06/16 03:56:25;;;;;;;4.30;3.90;;;14.00;99.90;;;;;;5181553;28;20609;-50
2022/06/16 03:58:56;;;;;;;6.20;4.40;;;14.10;99.90;;;;;;5186088;28;20180;-49
2022/06/16 04:01:27;;;;;;;4.23;3.97;;;14.10;99.90;;;;;;5177085;28;20982;-49
2022/06/16 04:04:01;;;;;;;6.60;4.07;;;14.30;99.90;;;;;;5183971;28;20641;-50
2022/06/16 04:06:34;;;;;;;4.93;3.30;;;14.60;99.90;;;;;;5170910;28;20196;-49
2022/06/16 04:09:05;;;;;;;3.57;3.30;;;14.70;99.90;;;;;;5185671;28;20555;-49
2022/06/16 04:11:36;;;;;;;4.57;3.80;;;14.90;99.90;;;;;;5187944;28;20863;-50
2022/06/16 04:14:09;;;;;;;3.30;3.10;;;15.10;99.90;;;;;;5184156;28;20563;-49
2022/06/16 04:16:42;;;;;;;6.17;3.83;;;15.20;99.90;;;;;;5186221;28;20184;-49
2022/06/16 04:19:16;;;;;;;4.33;3.73;;;15.40;99.90;;;;;;5182897;28;20449;-48
2022/06/16 04:21:48;;;;;;;5.80;3.73;;;15.50;99.90;;;;;;5182912;28;20471;-50
2022/06/16 04:24:20;;;;;;;2.87;2.70;;;15.40;99.90;;;;;;5184118;28;20423;-51
2022/06/16 04:26:51;;;;;;;5.73;3.73;;;15.30;99.90;;;;;;5179529;28;20435;-48
2022/06/16 04:29:23;;;;;;;5.13;4.10;;;15.20;99.90;;;;;;5181863;28;20995;-49
2022/06/16 04:31:54;;;;;;;4.80;3.63;;;15.10;99.90;;;;;;5166701;28;20208;-49
2022/06/16 04:34:24;;;;;;;4.67;3.70;;;15.10;99.90;;;;;;5166287;28;20960;-49
2022/06/16 04:36:55;;;;;;;9.17;4.10;;;15.00;99.90;;;;;;5183848;28;20189;-49
2022/06/16 04:39:25;;;;;;;6.23;3.90;;;15.10;99.90;;;;;;5186294;28;20653;-50
2022/06/16 04:41:56;;;;;;;8.20;4.40;;;15.30;99.90;;;;;;5182826;28;20699;-49
2022/06/16 04:44:27;;;;;;;5.00;4.10;;;15.90;99.90;;;;;;5180284;28;20647;-49
2022/06/16 04:46:58;;;;;;;3.47;3.17;;;16.90;99.90;;;;;;5177977;28;20180;-49
2022/06/16 04:49:29;;;;;;;3.93;3.17;;;18.10;99.90;;;;;;5177278;28;20240;-49
2022/06/16 04:52:01;;;;;;;6.00;3.47;;;19.10;99.90;;;;;;5183997;28;20200;-49
2022/06/16 04:54:32;;;;;;;4.37;3.80;;;19.60;97.10;;;;;;5183906;28;20427;-50
2022/06/16 04:57:03;;;;;;;7.50;3.40;;;19.10;96.00;;;;;;5179244;28;20423;-49
2022/06/16 04:59:35;;;;;;;3.37;3.13;;;18.90;97.30;;;;;;5182044;28;20443;-50
2022/06/16 05:02:05;;;;;;;3.60;2.20;;;18.90;97.00;;;;;;5176819;28;20231;-50
2022/06/16 05:04:39;;;;;;;5.90;3.73;;;19.00;95.40;;;;;;5175257;28;20788;-50
2022/06/16 05:07:10;;;;;;;3.67;2.90;;;18.90;95.20;;;;;;5181455;28;20272;-49
2022/06/16 05:09:40;;;;;;;3.27;2.97;;;19.30;95.10;;;;;;5183701;28;20674;-50
2022/06/16 05:12:12;;;;;;;2.57;2.43;;;20.20;91.90;;;;;;5178980;28;20498;-51
2022/06/16 05:14:42;;;;;;;3.00;2.60;;;20.90;88.00;;;;;;5175442;28;20199;-49
2022/06/16 05:17:13;;;;;;;6.43;3.30;;;21.60;80.50;;;;;;5184598;28;20440;-51
2022/06/16 05:19:44;;;;;;;3.53;3.00;;;22.40;73.60;;;;;;5170473;28;20193;-50
2022/06/16 05:22:14;;;;;;;3.37;3.00;;;22.90;66.90;;;;;;5171451;28;20208;-50
2022/06/16 05:24:45;;;;;;;3.83;2.60;;;23.80;62.80;;;;;;5175199;28;20269;-50
2022/06/16 05:27:17;;;;;;;3.67;2.43;;;24.50;58.70;;;;;;5182827;28;20181;-51
2022/06/16 05:29:47;;;;;;;5.60;2.50;;;25.80;53.40;;;;;;5175239;28;20188;-51
2022/06/16 05:32:18;;;;;;;3.53;2.80;;;26.40;50.10;;;;;;5178794;28;20459;-51
2022/06/16 05:34:49;;;;;;;11.43;2.80;;;25.10;50.40;;;;;;5171032;28;20689;-50
2022/06/16 05:37:19;;;;;;;3.70;2.40;;;23.80;53.30;;;;;;5178801;28;20528;-51
2022/06/16 05:39:50;;;;;;;10.43;2.90;;;23.30;54.60;;;;;;5175197;28;20331;-50
2022/06/16 05:42:20;;;;;;;2.23;2.07;;;22.90;55.60;;;;;;5179722;28;20216;-51
2022/06/16 05:44:51;;;;;;;4.53;2.20;;;23.70;54.70;;;;;;5171815;28;20233;-50
2022/06/16 05:47:22;;;;;;;9.23;2.40;;;25.40;53.40;;;;;;5181903;28;20253;-50
2022/06/16 05:49:52;;;;;;;2.30;1.90;;;26.00;48.60;;;;;;5176554;28;20184;-51
2022/06/16 05:52:23;;;;;;;2.40;2.30;;;25.40;49.80;;;;;;5178420;28;20212;-50
2022/06/16 05:54:54;;;;;;;2.07;1.97;;;25.00;49.60;;;;;;5180742;28;20185;-50
2022/06/16 05:57:25;;;;;;;4.30;2.33;;;23.70;51.40;;;;;;5182659;28;20192;-52
2022/06/16 05:59:55;;;;;;;8.60;2.83;;;22.40;53.70;;;;;;5182413;28;20206;-52
2022/06/16 06:02:26;;;;;;;2.97;2.60;;;21.10;56.80;;;;;;5204017;23;20656;-55
2022/06/16 06:04:56;;;;;;;2.97;2.77;;;20.80;58.90;;;;;;5201218;28;20180;-53
2022/06/16 06:16:25;;;;;;;5.00;2.53;;;20.90;59.70;;;;;;5196913;28;20516;-55
2022/06/16 06:18:47;;;;;;;5.67;2.80;;;23.50;53.70;;;;;;5193781;28;20476;-56
2022/06/16 06:21:57;;;;;;;3.43;2.30;;;24.40;54.20;;;;;;5201031;28;20474;-55
2022/06/16 06:24:10;;;;;;;3.13;2.40;;;26.40;49.10;;;;;;5197819;28;20525;-56
2022/06/16 06:26:41;;;;;;;6.00;2.77;;;27.10;47.00;;;;;;5192852;28;20952;-58
2022/06/16 06:29:12;;;;;;;2.50;2.20;;;27.60;45.40;;;;;;5211892;28;20490;-55
2022/06/16 06:31:43;;;;;;;5.97;2.40;;;27.80;44.30;;;;;;5209653;28;20233;-53
2022/06/16 06:34:13;;;;;;;6.63;2.30;;;27.30;43.90;;;;;;5206003;28;20854;-55
2022/06/16 06:36:44;;;;;;;6.10;2.23;;;25.80;46.00;;;;;;5192936;28;20188;-54
2022/06/16 06:39:15;;;;;;;4.50;2.33;;;24.70;48.60;;;;;;5203544;28;20179;-54
2022/06/16 06:41:45;;;;;;;2.53;2.33;;;24.30;49.90;;;;;;5200271;28;20246;-57
2022/06/16 06:44:16;;;;;;;4.93;2.50;;;24.20;49.90;;;;;;5195847;28;20176;-57
2022/06/16 06:46:47;;;;;;;2.33;1.93;;;23.60;51.40;;;;;;5201241;28;20524;-55
2022/06/16 06:49:19;;;;;;;2.13;2.03;;;23.10;52.20;;;;;;5205021;28;20327;-55
2022/06/16 06:51:50;;;;;;;2.13;2.03;;;22.70;53.50;;;;;;5204517;28;20246;-55
2022/06/16 06:54:21;;;;;;;5.53;2.50;;;22.50;54.00;;;;;;5208317;28;20466;-53
2022/06/16 06:56:51;;;;;;;4.20;2.10;;;23.30;53.50;;;;;;5206710;28;20199;-55
2022/06/16 06:59:23;;;;;;;3.13;2.60;;;24.90;50.20;;;;;;5204054;28;20192;-53
2022/06/16 07:01:54;;;;;;;3.00;2.37;;;25.80;47.40;;;;;;5191077;28;20254;-60
2022/06/16 07:04:24;;;;;;;13.23;1.87;;;26.80;46.60;;;;;;5199580;28;20547;-55
2022/06/16 07:06:55;;;;;;;2.70;2.27;;;28.80;43.20;;;;;;5204813;28;20179;-54
2022/06/16 07:09:25;;;;;;;1.87;1.70;;;30.70;38.70;;;;;;5201988;28;20183;-55
2022/06/16 07:11:56;;;;;;;3.23;2.40;;;30.90;37.50;;;;;;5208549;28;20640;-55
2022/06/16 07:14:29;;;;;;;3.13;1.70;;;30.00;38.20;;;;;;5206817;28;20191;-53
2022/06/16 07:17:00;;;;;;;4.10;2.03;;;29.20;39.20;;;;;;5193529;28;20195;-55
2022/06/16 07:19:33;;;;;;;2.57;1.80;;;28.70;40.00;;;;;;5198922;28;20793;-54
2022/06/16 07:22:05;;;;;;;1.90;1.80;;;28.90;40.30;;;;;;5208787;28;20281;-55
2022/06/16 07:24:36;;;;;;;3.27;1.97;;;30.00;39.00;;;;;;5205497;28;20473;-55
2022/06/16 07:27:07;;;;;;;2.90;1.53;;;30.00;37.60;;;;;;5199401;28;20430;-55
2022/06/16 07:29:38;;;;;;;2.17;2.07;;;29.30;39.00;;;;;;5218829;28;20663;-55
2022/06/16 07:32:09;;;;;;;3.00;2.20;;;28.90;39.10;;;;;;5205708;28;20470;-55
2022/06/16 07:34:39;;;;;;;1.70;1.60;;;28.10;40.50;;;;;;5187060;28;20202;-54
2022/06/16 07:37:10;;;;;;;2.87;1.90;;;27.00;42.00;;;;;;5202654;28;20263;-55
2022/06/16 07:39:41;;;;;;;1.40;1.40;;;26.20;43.30;;;;;;5200215;28;20613;-55
2022/06/16 07:42:12;;;;;;;5.60;1.60;;;26.10;44.70;;;;;;5200360;28;20238;-55
2022/06/16 07:44:42;;;;;;;2.13;1.87;;;27.30;42.90;;;;;;5200332;28;20226;-56
2022/06/16 07:47:13;;;;;;;1.30;1.20;;;29.20;39.80;;;;;;5205061;28;20257;-54
2022/06/16 07:49:45;;;;;;;2.23;2.00;;;29.20;38.30;;;;;;5198672;28;20188;-56
2022/06/16 07:52:16;;;;;;;3.70;1.90;;;28.70;39.20;;;;;;5194895;28;20628;-53
2022/06/16 07:54:49;;;;;;;9.10;2.37;;;28.00;39.80;;;;;;5204157;28;20463;-55
2022/06/16 07:57:21;;;;;;;2.20;2.00;;;27.40;41.10;;;;;;5208151;28;20257;-55
2022/06/16 07:59:56;;;;;;;2.90;2.70;;;26.90;42.20;;;;;;5206709;28;20449;-57
2022/06/16 08:02:27;;;;;;;2.70;2.00;;;27.80;41.30;;;;;;5205843;28;20481;-55
2022/06/16 08:04:58;;;;;;;2.70;1.63;;;28.30;40.10;;;;;;5197818;28;20481;-54
2022/06/16 08:07:29;;;;;;;3.90;2.03;;;28.90;38.80;;;;;;5198285;28;20188;-55
2022/06/16 08:09:59;;;;;;;1.80;1.70;;;29.00;38.50;;;;;;5207210;28;20592;-55
2022/06/16 08:12:30;;;;;;;3.07;1.70;;;28.20;39.50;;;;;;5205684;28;20586;-56
2022/06/16 08:15:01;;;;;;;4.67;1.87;;;28.40;39.70;;;;;;5201011;28;20212;-55
2022/06/16 08:17:34;;;;;;;4.57;1.60;;;29.70;38.30;;;;;;5203735;28;20594;-56
2022/06/16 08:20:06;;;;;;;6.27;2.37;;;30.30;36.50;;;;;;5206331;28;20442;-54
2022/06/16 08:22:37;;;;;;;2.00;1.90;;;30.80;36.00;;;;;;5204377;28;20512;-55
2022/06/16 08:25:12;;;;;;;2.30;1.80;;;31.00;34.90;;;;;;5198279;28;20896;-55
2022/06/16 08:27:46;;;;;;;1.90;1.80;;;30.80;35.20;;;;;;5209751;28;20179;-55
2022/06/16 08:30:17;;;;;;;10.60;2.17;;;31.50;34.30;;;;;;5201323;28;20445;-55
2022/06/16 08:32:48;;;;;;;3.10;1.63;;;31.50;33.70;;;;;;5200585;28;20804;-54
2022/06/16 08:35:20;;;;;;;3.70;1.80;;;31.10;34.40;;;;;;5202928;28;20453;-55
2022/06/16 08:37:50;;;;;;;2.77;2.00;;;29.90;35.10;;;;;;5192920;28;20194;-56
2022/06/16 08:40:21;;;;;;;2.50;1.50;;;28.90;37.40;;;;;;5204923;28;20442;-55
2022/06/16 08:42:58;;;;;;;3.50;1.93;;;29.30;36.80;;;;;;5198722;28;20586;-54
2022/06/16 08:45:38;;;;;;;3.70;2.00;;;28.70;36.70;;;;;;5198893;28;20184;-55
2022/06/16 08:48:34;;;;;;;2.10;2.00;;;28.30;38.00;;;;;;5197736;28;21091;-57
2022/06/16 08:51:25;;;;;;;1.57;1.57;;;28.80;38.00;;;;;;5197545;28;20462;-55
2022/06/16 08:54:12;;;;;;;2.83;1.70;;;29.20;37.10;;;;;;5196283;28;20442;-54
2022/06/16 08:57:20;;;;;;;4.03;1.87;;;28.00;38.40;;;;;;5200030;28;20441;-55
2022/06/16 08:59:57;;;;;;;2.20;1.90;;;27.20;40.40;;;;;;5192274;28;20442;-57
2022/06/16 09:02:49;;;;;;;3.80;1.97;;;26.80;41.30;;;;;;5200716;28;20485;-55
2022/06/16 09:05:39;;;;;;;2.10;1.97;;;26.80;41.80;;;;;;5193263;28;20448;-56
2022/06/16 09:08:45;;;;;;;1.80;1.70;;;26.60;41.90;;;;;;5197111;28;20463;-55
2022/06/16 09:11:46;;;;;;;5.17;2.30;;;26.90;42.10;;;;;;5198554;28;20548;-56
2022/06/16 09:17:52;;;;;;;3.33;1.73;;;27.40;40.60;;;;;;5195795;28;20434;-55
2022/06/16 09:20:35;;;;;;;4.03;1.90;;;27.00;40.70;;;;;;5196165;28;20529;-54
2022/06/16 09:23:30;;;;;;;2.83;1.90;;;27.10;40.70;;;;;;5199547;28;20902;-54
2022/06/16 09:26:17;;;;;;;3.23;1.43;;;27.50;40.70;;;;;;5204836;28;20442;-55
2022/06/16 09:28:57;;;;;;;2.80;1.70;;;27.70;39.50;;;;;;5188819;28;20497;-56
2022/06/16 09:31:48;;;;;;;1.57;1.47;;;27.20;40.10;;;;;;5194990;28;20509;-57
2022/06/16 09:34:25;;;;;;;6.80;2.27;;;26.80;40.50;;;;;;5194541;28;21029;-56
2022/06/16 09:37:01;;;;;;;6.00;2.10;;;26.80;40.90;;;;;;5201237;28;20921;-55
2022/06/16 09:39:44;;;;;;;3.70;2.17;;;26.80;40.70;;;;;;5202031;28;20441;-55
2022/06/16 09:42:38;;;;;;;2.93;2.07;;;26.60;41.00;;;;;;5199549;28;20482;-55
2022/06/16 09:45:51;;;;;;;3.10;1.90;;;26.20;40.80;;;;;;5194420;28;20431;-54
2022/06/16 09:48:23;;;;;;;1.83;1.70;;;26.10;41.60;;;;;;5187321;28;21013;-55
2022/06/16 09:51:01;;;;;;;1.60;1.50;;;26.00;42.30;;;;;;5201451;28;20483;-56
2022/06/16 09:53:51;;;;;;;4.10;1.57;;;26.40;42.00;;;;;;5216743;28;20515;-54
2022/06/16 09:56:43;;;;;;;3.57;1.67;;;26.40;41.60;;;;;;5197196;28;20485;-55
2022/06/16 09:59:23;;;;;;;5.13;1.80;;;26.50;41.80;;;;;;5197613;28;20823;-54
2022/06/16 10:02:06;;;;;;;1.80;1.70;;;26.80;41.10;;;;;;5201301;28;20572;-56
2022/06/16 10:04:36;;;;;;;2.57;1.50;;;26.90;40.90;;;;;;5197133;28;21020;-55
2022/06/16 10:07:26;;;;;;;8.77;2.37;;;26.80;40.50;;;;;;5195555;28;20470;-57
2022/06/16 10:10:05;;;;;;;12.33;2.13;;;26.40;41.00;;;;;;5205664;28;20176;-56
2022/06/16 10:12:59;;;;;;;1.47;1.13;;;26.30;40.60;;;;;;5209677;28;20492;-56
2022/06/16 10:15:32;;;;;;;4.87;3.00;;;26.30;41.30;;;;;;5199684;28;20780;-56
2022/06/16 10:18:04;;;;;;;2.20;2.10;;;26.40;40.60;;;;;;5194105;28;20431;-55
2022/06/16 10:20:35;;;;;;;2.77;2.10;;;26.30;40.50;;;;;;5195583;28;20846;-56
2022/06/16 10:23:15;;;;;;;12.60;8.53;;;26.00;40.80;;;;;;5201810;28;20438;-55
2022/06/16 10:25:54;;;;;;;4.40;2.67;;;25.80;41.50;;;;;;5203614;28;20188;-55
2022/06/16 10:28:33;;;;;;;1.93;1.83;;;26.10;41.50;;;;;;5201662;28;20802;-57
2022/06/16 10:31:06;;;;;;;4.90;2.37;;;26.60;40.40;;;;;;5198950;28;20449;-56
2022/06/16 10:33:52;;;;;;;1.80;1.70;;;27.20;39.80;;;;;;5194081;28;20440;-55
2022/06/16 10:36:25;;;;;;;2.57;2.10;;;27.50;39.00;;;;;;5199146;28;20430;-55
2022/06/16 10:39:16;;;;;;;2.60;1.70;;;27.40;38.50;;;;;;5197065;28;20430;-55
2022/06/16 10:41:55;;;;;;;2.30;1.63;;;26.60;39.20;;;;;;5199639;28;20470;-56
2022/06/16 10:44:28;;;;;;;1.90;1.70;;;26.30;39.80;;;;;;5197400;28;20426;-55
2022/06/16 10:47:06;;;;;;;2.37;2.03;;;26.10;40.20;;;;;;5205829;28;20470;-54
2022/06/16 10:49:40;;;;;;;6.57;1.73;;;25.90;40.70;;;;;;5196673;28;20434;-56
2022/06/16 10:52:14;;;;;;;2.87;2.33;;;25.80;40.70;;;;;;5206107;28;20528;-55
2022/06/16 10:54:58;;;;;;;9.30;2.93;;;25.40;41.20;;;;;;5203089;28;20933;-55
2022/06/16 10:57:32;;;;;;;1.80;1.70;;;25.30;41.40;;;;;;5197118;28;20457;-55
2022/06/16 11:00:16;;;;;;;4.20;2.10;;;25.30;41.50;;;;;;5212097;28;20933;-55
2022/06/16 11:03:05;;;;;;;1.50;1.50;;;25.50;41.00;;;;;;5201324;28;20469;-54
2022/06/16 11:05:52;;;;;;;4.53;2.00;;;25.60;41.00;;;;;;5190855;28;20443;-56
2022/06/16 11:08:31;;;;;;;1.73;1.50;;;25.80;40.50;;;;;;5199126;28;20434;-54
2022/06/16 11:11:02;;;;;;;2.33;2.03;;;26.00;40.50;;;;;;5197140;28;20461;-55
2022/06/16 11:13:44;;;;;;;3.43;1.87;;;26.10;40.50;;;;;;5202559;28;20438;-56
2022/06/16 11:16:31;;;;;;;3.13;1.97;;;25.90;41.00;;;;;;5202402;28;20445;-55
2022/06/16 11:19:08;;;;;;;1.90;1.80;;;26.20;40.80;;;;;;5202890;28;20430;-55
2022/06/16 11:21:45;;;;;;;7.40;2.67;;;26.20;41.20;;;;;;5205963;28;20974;-55
2022/06/16 11:24:31;;;;;;;1.80;1.70;;;25.90;41.20;;;;;;5202836;28;20807;-54
2022/06/16 11:27:15;;;;;;;1.87;1.77;;;25.60;42.20;;;;;;5203343;28;20423;-55
2022/06/16 11:29:46;;;;;;;3.90;2.07;;;25.10;42.90;;;;;;5201699;28;20430;-55
2022/06/16 11:32:31;;;;;;;2.47;1.93;;;24.80;43.90;;;;;;5195402;28;20473;-56
2022/06/16 11:35:02;;;;;;;1.23;1.23;;;24.90;44.10;;;;;;5204688;28;20175;-54
2022/06/16 11:37:41;;;;;;;5.87;1.33;;;24.80;43.00;;;;;;5202465;28;20438;-54
2022/06/16 11:40:36;;;;;;;8.70;2.00;;;24.70;43.40;;;;;;5202237;28;20470;-56
2022/06/16 11:43:23;;;;;;;1.73;1.63;;;24.60;43.90;;;;;;5205392;28;20473;-56
2022/06/16 11:46:06;;;;;;;8.03;2.50;;;24.50;44.40;;;;;;5198286;28;20446;-55
2022/06/16 11:48:42;;;;;;;3.80;2.37;;;24.30;43.50;;;;;;5195618;28;20470;-56
2022/06/16 11:51:36;;;;;;;2.30;1.87;;;23.90;43.30;;;;;;5201101;28;20458;-57
2022/06/16 11:54:57;;;;;;;7.93;1.97;;;23.70;43.70;;;;;;5202555;28;20457;-55
2022/06/16 11:58:07;;;;;;;2.20;2.00;;;23.60;44.50;;;;;;5186902;28;20529;-57
2022/06/16 12:03:37;;;;;;;2.00;1.90;;;23.70;44.20;;;;;;5214632;22;20498;-49
2022/06/16 12:06:29;;;;;;;3.13;1.90;;;23.80;44.10;;;;;;5203517;28;20450;-52
2022/06/16 12:09:19;;;;;;;3.20;2.13;;;23.90;44.00;;;;;;5197481;28;20986;-50
2022/06/16 12:12:22;;;;;;;4.00;1.90;;;23.90;43.90;;;;;;5201414;28;20453;-49
2022/06/16 12:15:15;;;;;;;1.50;1.40;;;23.90;43.30;;;;;;5192371;28;20899;-49
2022/06/16 12:18:14;;;;;;;2.10;2.00;;;23.90;43.60;;;;;;5196456;28;20450;-47
2022/06/16 12:20:56;;;;;;;1.73;1.67;;;23.80;44.10;;;;;;5194594;28;21087;-50
2022/06/16 12:23:30;;;;;;;2.10;2.00;;;23.50;44.60;;;;;;5197844;28;20473;-49
2022/06/16 12:26:25;;;;;;;11.17;4.57;;;23.50;44.80;;;;;;5198650;28;20642;-49
2022/06/16 12:29:24;;;;;;;8.43;4.83;;;23.60;44.90;;;;;;5193028;28;20443;-48
2022/06/16 12:32:19;;;;;;;1.90;1.80;;;23.80;44.60;;;;;;5209494;28;20565;-50
2022/06/16 12:35:03;;;;;;;5.47;2.53;;;23.90;44.00;;;;;;5195562;28;20868;-50
2022/06/16 12:37:39;;;;;;;3.37;3.10;;;23.80;44.20;;;;;;5199815;28;20513;-48
2022/06/16 12:40:12;;;;;;;4.53;2.40;;;23.80;44.50;;;;;;5197202;28;20474;-49
2022/06/16 12:42:53;;;;;;;2.30;2.20;;;23.70;44.10;;;;;;5196581;28;20578;-50
2022/06/16 12:45:30;;;;;;;1.73;1.63;;;23.60;44.00;;;;;;5193936;28;20811;-54
2022/06/16 12:48:06;;;;;;;2.20;2.00;;;23.60;44.30;;;;;;5195684;28;20452;-49
2022/06/16 12:50:41;;;;;;;2.60;2.30;;;23.70;44.30;;;;;;5194138;28;20438;-48
2022/06/16 12:53:19;;;;;;;9.50;2.27;;;23.70;44.50;;;;;;5196410;28;20441;-51
2022/06/16 12:56:18;;;;;;;3.47;2.07;;;23.70;44.00;;;;;;5200978;28;20430;-50
2022/06/16 12:58:55;;;;;;;2.13;1.93;;;23.80;44.20;;;;;;5189917;28;20447;-49
2022/06/16 13:01:25;;;;;;;2.70;1.90;;;23.90;44.10;;;;;;5200336;28;20989;-49
2022/06/16 13:04:04;;;;;;;5.97;2.30;;;23.80;44.00;;;;;;5195348;28;20434;-49
2022/06/16 13:06:37;;;;;;;2.13;1.93;;;23.80;44.00;;;;;;5186110;28;20709;-49
2022/06/16 13:09:11;;;;;;;1.93;1.83;;;23.90;43.80;;;;;;5199452;28;20453;-50
2022/06/16 13:11:50;;;;;;;9.33;2.40;;;24.10;43.80;;;;;;5193409;28;20504;-49
2022/06/16 13:14:31;;;;;;;6.43;2.20;;;24.30;43.50;;;;;;5191907;28;20442;-49
2022/06/16 13:17:05;;;;;;;3.47;2.60;;;24.30;43.00;;;;;;5193528;28;20597;-51
2022/06/16 13:19:51;;;;;;;2.43;2.00;;;24.30;42.90;;;;;;5203147;28;20580;-50
2022/06/16 13:22:37;;;;;;;3.50;1.97;;;24.10;43.00;;;;;;5199325;28;20830;-50
2022/06/16 13:25:40;;;;;;;10.57;5.50;;;23.90;43.60;;;;;;5196567;28;20442;-47
2022/06/16 13:28:31;;;;;;;6.30;2.87;;;23.90;43.30;;;;;;5194597;28;20426;-47
2022/06/16 13:31:46;;;;;;;8.63;3.50;;;24.00;43.00;;;;;;5206362;28;20501;-50
2022/06/16 13:34:41;;;;;;;6.00;3.57;;;24.30;43.20;;;;;;5196988;28;20472;-51
2022/06/16 13:37:27;;;;;;;2.20;1.30;;;24.70;42.60;;;;;;5196448;28;20453;-48
2022/06/16 13:40:12;;;;;;;2.20;2.00;;;24.70;42.10;;;;;;5196012;28;20431;-49
2022/06/16 13:43:05;;;;;;;4.33;3.47;;;24.90;42.40;;;;;;5203050;28;20477;-50
2022/06/16 13:45:39;;;;;;;2.83;2.30;;;25.10;41.80;;;;;;5198580;28;20536;-48
2022/06/16 13:48:11;;;;;;;14.37;4.97;;;25.20;41.80;;;;;;5198996;28;20488;-51
2022/06/16 13:50:47;;;;;;;3.33;3.03;;;25.40;41.70;;;;;;5189269;28;20508;-49
2022/06/16 13:53:44;;;;;;;4.10;3.37;;;25.50;41.10;;;;;;5198755;28;20998;-49
2022/06/16 13:56:21;;;;;;;3.90;2.80;;;25.60;41.40;;;;;;5198307;28;20443;-47
2022/06/16 13:58:51;;;;;;;7.63;4.23;;;25.60;41.20;;;;;;5197417;28;20426;-48
2022/06/16 14:01:27;;;;;;;11.97;2.60;;;25.60;40.90;;;;;;5195842;28;20493;-49